createdAt,value
2022-08-04T00:01:41.784Z,74.25
2022-08-04T00:04:13.087Z,73.76
2022-08-04T00:06:50.374Z,74.16
2022-08-04T00:09:26.339Z,75.25
2022-08-04T00:11:56.811Z,76.19
2022-08-04T00:14:26.270Z,74.87
2022-08-04T00:16:55.355Z,74.77
2022-08-04T00:19:28.492Z,76.49
2022-08-04T00:21:57.830Z,76.89
2022-08-04T00:24:27.368Z,76.94
2022-08-04T00:26:55.627Z,78.08
2022-08-04T00:29:24.245Z,77.15
2022-08-04T00:31:56.285Z,76.93
2022-08-04T00:34:27.127Z,77.07
2022-08-04T00:36:55.654Z,77.32
2022-08-04T00:39:24.276Z,77.55
2022-08-04T00:42:06.405Z,78.08
2022-08-04T00:44:39.530Z,76.89
2022-08-04T00:47:17.364Z,77.34
2022-08-04T00:49:57.332Z,77.85
2022-08-04T00:52:34.567Z,76.35
2022-08-04T00:55:13.654Z,76.73
2022-08-04T00:57:50.910Z,76.55
2022-08-04T01:00:20.709Z,77.17
2022-08-04T01:02:55.851Z,78.10
2022-08-04T01:05:36.640Z,79.01
2022-08-04T01:08:17.719Z,79.11
2022-08-04T01:10:50.004Z,77.71
2022-08-04T01:13:44.953Z,76.96
2022-08-04T01:16:15.778Z,78.69
2022-08-04T01:18:47.826Z,79.62
2022-08-04T01:21:32.213Z,80.51
2022-08-04T01:24:14.978Z,80.62
2022-08-04T01:26:57.994Z,80.33
2022-08-04T01:29:44.021Z,80.21
2022-08-04T01:32:21.091Z,79.81
2022-08-04T01:34:57.543Z,80.29
2022-08-04T01:37:33.086Z,80.61
2022-08-04T01:40:04.136Z,80.60
2022-08-04T01:42:33.213Z,80.30
2022-08-04T01:45:04.887Z,79.66
2022-08-04T01:47:35.465Z,79.74
2022-08-04T01:50:06.532Z,79.76
2022-08-04T01:52:35.893Z,81.16
2022-08-04T01:55:05.275Z,81.66
2022-08-04T01:57:38.781Z,80.81
2022-08-04T02:00:10.219Z,81.14
2022-08-04T02:02:38.258Z,81.16
2022-08-04T02:05:06.707Z,81.74
2022-08-04T02:07:41.993Z,81.74
2022-08-04T02:10:14.358Z,82.04
2022-08-04T02:12:52.164Z,81.46
2022-08-04T02:15:26.507Z,81.36
2022-08-04T02:17:58.480Z,82.89
2022-08-04T02:20:31.142Z,82.90
2022-08-04T02:23:00.770Z,83.07
2022-08-04T02:25:31.334Z,83.13
2022-08-04T02:28:06.525Z,82.76
2022-08-04T02:30:41.937Z,82.60
2022-08-04T02:33:13.560Z,80.65
2022-08-04T02:35:42.530Z,81.40
2022-08-04T02:38:14.134Z,80.87
2022-08-04T02:40:43.243Z,81.49
2022-08-04T02:43:12.037Z,81.86
2022-08-04T02:45:43.134Z,82.01
2022-08-04T02:48:30.135Z,82.47
2022-08-04T02:51:00.613Z,82.07
2022-08-04T02:53:29.870Z,81.83
2022-08-04T02:55:59.219Z,83.25
2022-08-04T02:58:30.640Z,83.72
2022-08-04T03:01:00.022Z,82.76
2022-08-04T03:03:32.333Z,82.27
2022-08-04T03:06:19.841Z,81.73
2022-08-04T03:09:07.000Z,81.91
2022-08-04T03:11:52.601Z,81.58
2022-08-04T03:14:38.347Z,81.48
2022-08-04T03:17:26.987Z,80.64
2022-08-04T03:20:09.756Z,80.99
2022-08-04T03:23:12.390Z,82.24
2022-08-04T03:25:59.601Z,84.01
2022-08-04T03:28:42.453Z,83.98
2022-08-04T03:31:34.971Z,83.73
2022-08-04T03:34:14.962Z,82.36
2022-08-04T03:37:04.339Z,82.99
2022-08-04T03:39:50.769Z,83.03
2022-08-04T03:42:35.582Z,82.63
2022-08-04T03:45:20.554Z,82.01
2022-08-04T03:48:09.743Z,82.58
2022-08-04T03:50:48.202Z,82.76
2022-08-04T03:53:32.160Z,83.57
2022-08-04T03:56:14.945Z,84.39
2022-08-04T03:59:16.298Z,85.21
2022-08-04T04:02:02.400Z,84.82
2022-08-04T04:04:51.481Z,84.04
2022-08-04T04:07:37.378Z,83.74
2022-08-04T04:10:13.855Z,83.61
2022-08-04T04:12:59.537Z,83.25
2022-08-04T04:15:36.061Z,83.71
2022-08-04T04:18:24.890Z,83.70
2022-08-04T04:21:07.501Z,83.21
2022-08-04T04:23:54.450Z,83.45
2022-08-04T04:26:33.802Z,82.61
2022-08-04T04:29:13.860Z,82.56
2022-08-04T04:31:55.060Z,82.62
2022-08-04T04:34:33.908Z,82.93
2022-08-04T04:37:13.387Z,81.91
2022-08-04T04:39:46.227Z,81.26
2022-08-04T04:42:26.839Z,79.45
2022-08-04T04:45:04.991Z,78.68
2022-08-04T04:47:43.039Z,78.07
2022-08-04T04:50:36.987Z,77.34
2022-08-04T04:53:10.997Z,76.52
2022-08-04T04:55:47.693Z,76.25
2022-08-04T04:58:18.363Z,76.53
2022-08-04T05:00:56.602Z,76.45
2022-08-04T05:03:39.444Z,74.99
2022-08-04T05:06:18.050Z,75.08
2022-08-04T05:09:00.902Z,74.25
2022-08-04T05:11:47.392Z,73.40
2022-08-04T05:14:37.624Z,73.72
2022-08-04T05:17:13.841Z,73.34
2022-08-04T05:19:46.953Z,73.06
2022-08-04T05:22:22.296Z,72.94
2022-08-04T05:24:53.682Z,71.69
2022-08-04T05:27:24.441Z,70.54
2022-08-04T05:29:54.301Z,70.68
2022-08-04T05:32:25.981Z,69.93
2022-08-04T05:34:57.207Z,68.75
2022-08-04T05:37:29.965Z,67.64
2022-08-04T05:39:59.668Z,66.57
2022-08-04T05:42:29.025Z,66.31
2022-08-04T05:44:57.318Z,65.09
2022-08-04T05:47:26.214Z,64.90
2022-08-04T05:50:01.193Z,65.17
2022-08-04T05:52:32.616Z,63.55
2022-08-04T05:55:01.720Z,63.38
2022-08-04T05:57:30.496Z,62.77
2022-08-04T06:00:00.183Z,62.94
2022-08-04T06:02:29.215Z,63.20
2022-08-04T06:04:58.694Z,63.12
2022-08-04T06:07:26.884Z,61.70
2022-08-04T06:09:56.488Z,61.27
2022-08-04T06:12:38.941Z,61.40
2022-08-04T06:15:09.366Z,60.44
2022-08-04T06:19:56.723Z,60.05
2022-08-04T06:20:34.494Z,58.77
2022-08-04T06:23:08.951Z,58.35
2022-08-04T06:25:44.402Z,59.15
2022-08-04T06:28:14.425Z,58.97
2022-08-04T06:30:42.837Z,58.28
2022-08-04T06:33:24.863Z,56.37
2022-08-04T06:35:55.603Z,56.24
2022-08-04T06:38:25.781Z,56.90
2022-08-04T06:40:58.130Z,56.29
2022-08-04T06:43:26.989Z,55.06
2022-08-04T06:46:02.443Z,54.43
2022-08-04T06:48:33.539Z,53.64
2022-08-04T06:51:32.750Z,52.43
2022-08-04T06:53:51.151Z,51.36
2022-08-04T06:56:21.693Z,50.91
2022-08-04T06:58:51.390Z,51.29
2022-08-04T07:01:20.819Z,50.95
2022-08-04T07:03:50.732Z,51.13
2022-08-04T07:06:19.310Z,50.66
2022-08-04T07:08:47.800Z,49.91
2022-08-04T07:11:16.533Z,49.14
2022-08-04T07:13:46.771Z,50.44
2022-08-04T07:16:15.190Z,46.79
2022-08-04T07:18:43.256Z,46.73
2022-08-04T07:21:12.285Z,46.07
2022-08-04T07:23:40.551Z,46.22
2022-08-04T07:26:12.052Z,46.93
2022-08-04T07:28:42.248Z,46.22
2022-08-04T07:31:31.912Z,46.40
2022-08-04T07:34:20.992Z,45.86
2022-08-04T07:36:52.873Z,44.67
2022-08-04T07:39:28.175Z,43.97
2022-08-04T07:41:58.760Z,44.83
2022-08-04T07:44:26.870Z,43.25
2022-08-04T07:46:56.493Z,43.55
2022-08-04T07:49:52.138Z,43.84
2022-08-04T07:52:15.283Z,46.18
2022-08-04T07:54:45.028Z,44.29
2022-08-04T07:57:19.163Z,44.36
2022-08-04T08:00:01.549Z,43.27
2022-08-04T08:02:31.999Z,43.58
2022-08-04T08:05:00.659Z,42.47
2022-08-04T08:07:28.984Z,44.47
2022-08-04T08:09:57.187Z,45.33
2022-08-04T08:12:37.745Z,43.92
2022-08-04T08:15:15.789Z,43.72
2022-08-04T08:17:58.861Z,43.61
2022-08-04T08:20:33.473Z,42.10
2022-08-04T08:23:04.119Z,41.90
2022-08-04T08:25:34.310Z,42.86
2022-08-04T08:28:05.288Z,42.11
2022-08-04T08:30:34.740Z,41.10
2022-08-04T08:33:08.503Z,42.19
2022-08-04T08:35:53.169Z,42.87
2022-08-04T08:38:35.953Z,44.14
2022-08-04T08:41:37.358Z,41.80
2022-08-04T08:44:38.639Z,42.64
2022-08-04T08:47:21.337Z,41.76
2022-08-04T08:50:38.446Z,42.89
2022-08-04T08:53:24.629Z,42.18
2022-08-04T08:56:13.098Z,42.91
2022-08-04T08:59:01.269Z,42.56
2022-08-04T09:01:45.912Z,43.92
2022-08-04T09:04:43.413Z,43.99
2022-08-04T09:07:34.072Z,43.05
2022-08-04T09:10:17.010Z,42.09
2022-08-04T09:12:51.982Z,43.06
2022-08-04T09:15:31.318Z,43.06
2022-08-04T09:18:07.053Z,43.70
2022-08-04T09:20:41.576Z,42.45
2022-08-04T09:23:20.162Z,41.76
2022-08-04T09:25:55.743Z,42.54
2022-08-04T09:28:52.349Z,43.35
2022-08-04T09:31:18.679Z,44.71
2022-08-04T09:33:57.436Z,43.46
2022-08-04T09:36:33.784Z,42.87
2022-08-04T09:39:16.173Z,43.48
2022-08-04T09:41:56.139Z,42.60
2022-08-04T09:44:50.053Z,41.93
2022-08-04T09:47:39.797Z,43.01
2022-08-04T09:50:25.700Z,43.01
2022-08-04T09:53:00.691Z,44.12
2022-08-04T09:55:53.176Z,42.37
2022-08-04T09:58:35.287Z,43.28
2022-08-04T10:01:07.633Z,43.24
2022-08-04T10:03:39.383Z,44.01
2022-08-04T10:06:45.012Z,42.87
2022-08-04T10:09:35.838Z,43.03
2022-08-04T10:12:18.019Z,44.46
2022-08-04T10:14:54.208Z,42.18
2022-08-04T10:17:52.102Z,42.51
2022-08-04T10:20:46.481Z,43.77
2022-08-04T10:23:29.149Z,42.35
2022-08-04T10:26:08.448Z,43.49
2022-08-04T10:28:45.582Z,43.27
2022-08-04T10:31:20.959Z,42.41
2022-08-04T10:33:54.872Z,41.46
2022-08-04T10:36:28.899Z,42.44
2022-08-04T10:39:02.694Z,42.35
2022-08-04T10:41:37.493Z,42.82
2022-08-04T10:44:23.701Z,42.19
2022-08-04T10:46:57.031Z,40.58
2022-08-04T10:49:34.412Z,42.54
2022-08-04T10:52:08.981Z,42.61
2022-08-04T10:54:48.352Z,42.97
2022-08-04T10:57:22.852Z,41.24
2022-08-04T11:00:00.558Z,43.04
2022-08-04T11:02:39.275Z,42.62
2022-08-04T11:05:18.627Z,42.31
2022-08-04T11:07:48.938Z,42.08
2022-08-04T11:10:21.721Z,41.48
2022-08-04T11:12:57.972Z,41.51
2022-08-04T11:15:35.914Z,41.45
2022-08-04T11:18:16.286Z,41.84
2022-08-04T11:20:53.096Z,40.32
2022-08-04T11:23:28.100Z,40.81
2022-08-04T11:26:02.584Z,43.29
2022-08-04T11:28:43.887Z,42.31
2022-08-04T11:31:21.102Z,42.17
2022-08-04T11:33:58.073Z,39.85
2022-08-04T11:36:37.758Z,39.94
2022-08-04T11:39:11.584Z,41.65
2022-08-04T11:41:50.903Z,41.27
2022-08-04T11:44:27.813Z,40.95
2022-08-04T11:47:03.813Z,41.57
2022-08-04T11:49:56.019Z,40.48
2022-08-04T11:52:27.554Z,40.13
2022-08-04T11:54:57.703Z,40.75
2022-08-04T11:57:35.958Z,41.09
2022-08-04T12:00:10.440Z,41.75
2022-08-04T12:03:03.396Z,41.33
2022-08-04T12:05:37.860Z,40.37
2022-08-04T12:08:27.241Z,39.86
2022-08-04T12:11:07.877Z,40.99
2022-08-04T12:13:45.263Z,41.45
2022-08-04T12:16:19.265Z,39.78
2022-08-04T12:18:52.520Z,38.98
2022-08-04T12:21:30.406Z,39.57
2022-08-04T12:24:04.000Z,39.11
2022-08-04T12:26:36.146Z,39.33
2022-08-04T12:29:10.176Z,39.65
2022-08-04T12:31:43.292Z,37.92
2022-08-04T12:34:14.918Z,37.92
2022-08-04T12:36:46.578Z,38.20
2022-08-04T12:39:16.908Z,40.74
2022-08-04T12:41:55.032Z,37.46
2022-08-04T12:44:37.461Z,37.79
2022-08-04T12:47:26.446Z,37.15
2022-08-04T12:50:02.300Z,36.69
2022-08-04T12:52:59.266Z,37.48
2022-08-04T12:55:21.602Z,36.49
2022-08-04T12:57:50.862Z,35.58
2022-08-04T13:00:29.830Z,35.55
2022-08-04T13:03:09.485Z,37.48
2022-08-04T13:05:40.516Z,36.81
2022-08-04T13:08:09.994Z,35.34
2022-08-04T13:10:40.920Z,35.51
2022-08-04T13:13:13.631Z,35.83
2022-08-04T13:15:47.162Z,34.48
2022-08-04T13:18:30.162Z,32.65
2022-08-04T13:21:20.570Z,32.99
2022-08-04T13:26:53.387Z,34.52
2022-08-04T13:29:59.865Z,35.18
2022-08-04T13:30:24.215Z,33.82
2022-08-04T13:32:13.235Z,35.59
2022-08-04T13:34:42.458Z,34.91
2022-08-04T13:37:20.800Z,35.00
2022-08-04T13:39:55.599Z,34.53
2022-08-04T13:42:25.498Z,33.27
2022-08-04T13:44:58.749Z,33.73
2022-08-04T13:47:28.836Z,32.29
2022-08-04T13:50:21.164Z,32.64
2022-08-04T13:52:52.915Z,30.78
2022-08-04T13:55:21.871Z,29.83
2022-08-04T13:57:53.092Z,30.65
2022-08-04T14:00:29.703Z,30.32
2022-08-04T14:03:03.501Z,30.94
2022-08-04T14:06:05.346Z,30.18
2022-08-04T14:08:37.839Z,30.33
2022-08-04T14:11:06.888Z,29.05
2022-08-04T14:13:41.181Z,28.81
2022-08-04T14:16:16.561Z,29.32
2022-08-04T14:18:44.634Z,29.11
2022-08-04T14:21:16.863Z,28.65
2022-08-04T14:23:51.108Z,27.85
2022-08-04T14:26:31.290Z,28.08
2022-08-04T14:29:28.607Z,27.46
2022-08-04T14:32:12.758Z,28.53
2022-08-04T14:34:45.116Z,29.52
2022-08-04T14:37:18.640Z,29.25
2022-08-04T14:40:19.292Z,28.78
2022-08-04T14:42:42.531Z,28.31
2022-08-04T14:45:11.155Z,29.57
2022-08-04T14:47:51.976Z,28.11
2022-08-04T14:50:21.790Z,28.11
2022-08-04T14:52:50.150Z,28.33
2022-08-04T14:55:21.206Z,27.85
2022-08-04T14:58:34.749Z,28.08
2022-08-04T15:00:38.226Z,28.90
2022-08-04T15:03:08.876Z,29.20
2022-08-04T15:05:59.962Z,29.08
2022-08-04T15:08:29.246Z,28.51
2022-08-04T15:11:03.128Z,27.81
2022-08-04T15:13:32.265Z,26.35
2022-08-04T15:16:06.270Z,26.90
2022-08-04T15:18:37.298Z,26.17
2022-08-04T15:21:06.204Z,26.48
2022-08-04T15:23:39.216Z,25.47
2022-08-04T15:26:11.280Z,25.78
2022-08-04T15:28:41.240Z,25.03
2022-08-04T15:32:06.394Z,25.49
2022-08-04T15:33:58.719Z,24.63
2022-08-04T15:36:32.696Z,24.61
2022-08-04T15:39:05.139Z,24.19
2022-08-04T15:41:37.844Z,25.08
2022-08-04T15:44:24.679Z,24.95
2022-08-04T15:47:12.638Z,24.59
2022-08-04T15:49:41.859Z,24.33
2022-08-04T15:52:11.853Z,23.74
2022-08-04T15:54:42.370Z,23.74
2022-08-04T15:57:53.644Z,22.70
2022-08-04T16:00:21.897Z,21.86
2022-08-04T16:02:50.573Z,21.28
2022-08-04T16:05:36.898Z,20.52
2022-08-04T16:08:15.537Z,20.29
2022-08-04T16:10:46.729Z,21.28
2022-08-04T16:13:19.703Z,21.74
2022-08-04T16:15:53.784Z,21.80
2022-08-04T16:18:40.666Z,22.11
2022-08-04T16:21:20.334Z,21.22
2022-08-04T16:24:30.536Z,20.26
2022-08-04T16:27:00.470Z,19.24
2022-08-04T16:29:39.991Z,19.64
2022-08-04T16:32:18.402Z,19.83
2022-08-04T16:34:59.061Z,19.07
2022-08-04T16:37:32.869Z,20.56
2022-08-04T16:40:19.497Z,21.66
2022-08-04T16:42:47.678Z,22.32
2022-08-04T16:45:17.981Z,22.79
2022-08-04T16:48:08.146Z,23.80
2022-08-04T16:50:47.979Z,25.02
2022-08-04T16:53:53.137Z,27.03
2022-08-04T16:56:06.438Z,29.09
2022-08-04T16:58:36.790Z,29.82
2022-08-04T17:01:10.511Z,29.64
2022-08-04T17:03:57.711Z,29.90
2022-08-04T17:06:35.961Z,31.39
2022-08-04T17:09:07.222Z,32.72
2022-08-04T17:11:35.264Z,34.53
2022-08-04T17:14:05.835Z,36.21
2022-08-04T17:16:36.317Z,36.97
2022-08-04T17:19:04.950Z,37.66
2022-08-04T17:21:34.275Z,38.53
2022-08-04T17:24:15.665Z,37.99
2022-08-04T17:26:51.732Z,38.68
2022-08-04T17:29:22.757Z,39.30
2022-08-04T17:32:16.289Z,39.97
2022-08-04T17:34:47.652Z,40.62
2022-08-04T17:40:10.272Z,40.65
2022-08-04T17:42:42.036Z,40.78
2022-08-04T17:45:50.091Z,41.32
2022-08-04T17:48:03.007Z,40.98
2022-08-04T17:50:35.877Z,42.20
2022-08-04T17:53:11.503Z,41.74
2022-08-04T17:55:41.891Z,42.49
2022-08-04T17:58:20.987Z,42.76
2022-08-04T18:00:51.238Z,42.87
2022-08-04T18:03:29.155Z,43.29
2022-08-04T18:06:03.382Z,43.93
2022-08-04T18:08:39.841Z,43.15
2022-08-04T18:11:22.045Z,43.97
2022-08-04T18:13:54.471Z,44.75
2022-08-04T18:16:27.406Z,46.53
2022-08-04T18:19:12.770Z,46.82
2022-08-04T18:21:45.660Z,48.26
2022-08-04T18:24:34.335Z,46.57
2022-08-04T18:27:06.587Z,48.03
2022-08-04T18:29:38.988Z,47.50
2022-08-04T18:32:08.962Z,50.50
2022-08-04T18:34:40.730Z,51.88
2022-08-04T18:38:06.717Z,51.39
2022-08-04T18:40:26.592Z,52.12
2022-08-04T18:42:59.887Z,53.13
2022-08-04T18:45:34.719Z,53.55
2022-08-04T18:48:04.152Z,52.78
2022-08-04T18:51:11.206Z,53.73
2022-08-04T18:53:35.146Z,54.35
2022-08-04T18:56:04.143Z,54.93
2022-08-04T18:58:34.490Z,55.08
2022-08-04T19:01:02.616Z,55.17
2022-08-04T19:03:44.724Z,55.42
2022-08-04T19:06:18.140Z,55.37
2022-08-04T19:08:55.564Z,55.97
2022-08-04T19:11:54.087Z,56.00
2022-08-04T19:14:13.233Z,56.52
2022-08-04T19:19:47.396Z,57.40
2022-08-04T19:22:35.450Z,57.21
2022-08-04T19:25:04.450Z,57.70
2022-08-04T19:27:38.508Z,57.05
2022-08-04T19:30:09.787Z,58.36
2022-08-04T19:32:41.032Z,58.32
2022-08-04T19:35:14.388Z,58.12
2022-08-04T19:37:58.448Z,58.38
2022-08-04T19:40:33.540Z,59.33
2022-08-04T19:43:14.277Z,58.74
2022-08-04T19:45:45.408Z,58.13
2022-08-04T19:48:19.215Z,58.00
2022-08-04T19:50:48.723Z,58.50
2022-08-04T19:53:20.101Z,57.29
2022-08-04T19:56:06.623Z,56.80
2022-08-04T19:58:34.940Z,56.81
2022-08-04T20:01:03.225Z,56.38
2022-08-04T20:06:19.889Z,57.98
2022-08-04T20:08:50.081Z,56.29
2022-08-04T20:11:21.117Z,57.23
2022-08-04T20:13:54.139Z,58.98
2022-08-04T20:16:28.392Z,60.01
2022-08-04T20:19:03.628Z,58.39
2022-08-04T20:21:54.398Z,59.93
2022-08-04T20:24:40.743Z,59.59
2022-08-04T20:27:15.487Z,60.69
2022-08-04T20:29:48.357Z,59.38
2022-08-04T20:32:19.308Z,59.19
2022-08-04T20:34:48.100Z,59.52
2022-08-04T20:37:16.450Z,60.56
2022-08-04T20:39:54.480Z,60.32
2022-08-04T20:42:27.266Z,60.53
2022-08-04T20:45:01.932Z,59.69
2022-08-04T20:47:35.049Z,60.44
2022-08-04T20:50:04.703Z,61.55
2022-08-04T20:52:33.660Z,62.03
2022-08-04T20:55:04.033Z,62.04
2022-08-04T20:57:47.515Z,61.26
2022-08-04T21:00:17.123Z,61.99
2022-08-04T21:02:45.083Z,61.97
2022-08-04T21:05:13.215Z,62.70
2022-08-04T21:07:41.641Z,61.49
2022-08-04T21:10:11.448Z,60.65
2022-08-04T21:12:39.454Z,60.82
2022-08-04T21:15:14.503Z,61.56
2022-08-04T21:17:58.712Z,62.31
2022-08-04T21:20:33.312Z,62.50
2022-08-04T21:23:03.698Z,62.66
2022-08-04T21:25:42.907Z,62.22
2022-08-04T21:28:11.847Z,61.60
2022-08-04T21:30:54.618Z,62.21
2022-08-04T21:33:50.032Z,62.99
2022-08-04T21:36:12.625Z,63.35
2022-08-04T21:38:41.862Z,62.21
2022-08-04T21:41:24.984Z,63.28
2022-08-04T21:43:55.710Z,64.50
2022-08-04T21:46:23.734Z,64.43
2022-08-04T21:48:51.990Z,63.50
2022-08-04T21:51:21.757Z,65.02
2022-08-04T21:54:11.579Z,64.96
2022-08-04T21:56:50.920Z,65.04
2022-08-04T21:59:23.596Z,63.69
2022-08-04T22:02:00.168Z,63.18
2022-08-04T22:04:28.625Z,63.04
2022-08-04T22:06:56.579Z,63.81
2022-08-04T22:09:24.599Z,65.00
2022-08-04T22:11:58.223Z,65.24
2022-08-04T22:14:34.643Z,64.51
2022-08-04T22:17:03.954Z,65.95
2022-08-04T22:19:40.692Z,65.61
2022-08-04T22:22:25.168Z,65.84
2022-08-04T22:24:55.060Z,65.91
2022-08-04T22:27:38.700Z,66.60
2022-08-04T22:30:13.316Z,66.52
2022-08-04T22:32:45.053Z,66.18
2022-08-04T22:35:35.427Z,66.53
2022-08-04T22:38:07.176Z,65.82
2022-08-04T22:40:50.078Z,66.13
2022-08-04T22:43:32.654Z,65.96
2022-08-04T22:46:03.888Z,65.73
2022-08-04T22:48:33.343Z,66.49
2022-08-04T22:51:01.360Z,66.07
2022-08-04T22:53:31.020Z,67.59
2022-08-04T22:56:10.072Z,67.46
2022-08-04T22:58:45.654Z,67.29
2022-08-04T23:01:18.921Z,67.28
2022-08-04T23:03:55.386Z,66.52
2022-08-04T23:06:24.273Z,67.04
2022-08-04T23:08:52.907Z,67.45
2022-08-04T23:11:21.646Z,67.46
2022-08-04T23:13:50.918Z,68.31
2022-08-04T23:16:20.085Z,67.91
2022-08-04T23:18:48.988Z,68.04
2022-08-04T23:21:17.285Z,68.48
2022-08-04T23:24:00.806Z,68.81
2022-08-04T23:26:30.821Z,68.72
2022-08-04T23:29:03.720Z,68.09
2022-08-04T23:31:41.465Z,67.65
2022-08-04T23:34:19.931Z,68.38
2022-08-04T23:36:47.897Z,68.25
2022-08-04T23:39:15.934Z,68.44
2022-08-04T23:41:54.337Z,68.85
2022-08-04T23:44:28.187Z,68.75
2022-08-04T23:47:00.353Z,70.11
2022-08-04T23:49:43.905Z,70.34
2022-08-04T23:52:23.601Z,69.55
2022-08-04T23:54:58.546Z,69.83
2022-08-04T23:58:02.402Z,69.99
